sensor_id;sensor_type;location;lat;lon;timestamp;temperature;humidity
30999;DHT22;20549;50.042;8.968;2023-02-13T00:02:24;11.20;87.20
30999;DHT22;20549;50.042;8.968;2023-02-13T00:04:51;11.20;87.10
30999;DHT22;20549;50.042;8.968;2023-02-13T00:07:17;11.20;86.90
30999;DHT22;20549;50.042;8.968;2023-02-13T00:09:44;11.20;86.90
30999;DHT22;20549;50.042;8.968;2023-02-13T00:12:11;11.20;86.70
30999;DHT22;20549;50.042;8.968;2023-02-13T00:14:37;11.20;86.70
30999;DHT22;20549;50.042;8.968;2023-02-13T00:17:04;11.20;86.60
30999;DHT22;20549;50.042;8.968;2023-02-13T00:19:30;11.20;86.50
30999;DHT22;20549;50.042;8.968;2023-02-13T00:21:57;11.20;86.40
30999;DHT22;20549;50.042;8.968;2023-02-13T00:24:23;11.10;86.30
30999;DHT22;20549;50.042;8.968;2023-02-13T00:26:50;11.10;86.30
30999;DHT22;20549;50.042;8.968;2023-02-13T00:29:17;11.10;86.30
30999;DHT22;20549;50.042;8.968;2023-02-13T00:31:44;11.10;86.30
30999;DHT22;20549;50.042;8.968;2023-02-13T00:34:10;11.10;86.30
30999;DHT22;20549;50.042;8.968;2023-02-13T00:36:36;11.10;86.30
30999;DHT22;20549;50.042;8.968;2023-02-13T00:39:03;11.10;86.40
30999;DHT22;20549;50.042;8.968;2023-02-13T00:41:30;11.10;86.40
30999;DHT22;20549;50.042;8.968;2023-02-13T00:43:56;11.10;86.40
30999;DHT22;20549;50.042;8.968;2023-02-13T00:46:23;11.10;86.30
30999;DHT22;20549;50.042;8.968;2023-02-13T00:48:49;11.10;86.30
30999;DHT22;20549;50.042;8.968;2023-02-13T00:51:16;11.10;86.20
30999;DHT22;20549;50.042;8.968;2023-02-13T00:53:43;11.10;86.10
30999;DHT22;20549;50.042;8.968;2023-02-13T00:56:09;11.10;86.10
30999;DHT22;20549;50.042;8.968;2023-02-13T00:58:36;11.00;86.00
30999;DHT22;20549;50.042;8.968;2023-02-13T01:01:02;11.00;85.90
30999;DHT22;20549;50.042;8.968;2023-02-13T01:03:29;11.00;85.80
30999;DHT22;20549;50.042;8.968;2023-02-13T01:05:56;11.00;85.80
30999;DHT22;20549;50.042;8.968;2023-02-13T01:08:22;11.00;85.80
30999;DHT22;20549;50.042;8.968;2023-02-13T01:10:49;10.90;85.70
30999;DHT22;20549;50.042;8.968;2023-02-13T01:13:16;10.90;85.60
30999;DHT22;20549;50.042;8.968;2023-02-13T01:15:42;10.80;85.50
30999;DHT22;20549;50.042;8.968;2023-02-13T01:18:09;10.80;85.50
30999;DHT22;20549;50.042;8.968;2023-02-13T01:20:35;10.80;85.50
30999;DHT22;20549;50.042;8.968;2023-02-13T01:23:02;10.70;85.30
30999;DHT22;20549;50.042;8.968;2023-02-13T01:25:28;10.70;85.20
30999;DHT22;20549;50.042;8.968;2023-02-13T01:27:55;10.60;85.00
30999;DHT22;20549;50.042;8.968;2023-02-13T01:30:21;10.50;84.90
30999;DHT22;20549;50.042;8.968;2023-02-13T01:32:48;10.40;84.90
30999;DHT22;20549;50.042;8.968;2023-02-13T01:35:15;10.30;84.80
30999;DHT22;20549;50.042;8.968;2023-02-13T01:37:41;10.30;85.00
30999;DHT22;20549;50.042;8.968;2023-02-13T01:40:10;10.10;85.00
30999;DHT22;20549;50.042;8.968;2023-02-13T01:42:34;10.10;85.10
30999;DHT22;20549;50.042;8.968;2023-02-13T01:45:05;10.00;85.30
30999;DHT22;20549;50.042;8.968;2023-02-13T01:47:50;9.90;85.40
30999;DHT22;20549;50.042;8.968;2023-02-13T01:50:31;9.80;85.70
30999;DHT22;20549;50.042;8.968;2023-02-13T01:53:03;9.60;86.00
30999;DHT22;20549;50.042;8.968;2023-02-13T01:55:23;9.50;86.30
30999;DHT22;20549;50.042;8.968;2023-02-13T01:57:51;9.40;86.50
30999;DHT22;20549;50.042;8.968;2023-02-13T02:00:16;9.30;86.80
30999;DHT22;20549;50.042;8.968;2023-02-13T02:02:44;9.20;87.00
30999;DHT22;20549;50.042;8.968;2023-02-13T02:05:09;9.10;87.20
30999;DHT22;20549;50.042;8.968;2023-02-13T02:07:36;9.10;87.50
30999;DHT22;20549;50.042;8.968;2023-02-13T02:10:04;9.00;87.80
30999;DHT22;20549;50.042;8.968;2023-02-13T02:12:52;8.90;87.80
30999;DHT22;20549;50.042;8.968;2023-02-13T02:15:17;8.80;88.00
30999;DHT22;20549;50.042;8.968;2023-02-13T02:17:43;8.70;87.90
30999;DHT22;20549;50.042;8.968;2023-02-13T02:20:15;8.60;88.10
30999;DHT22;20549;50.042;8.968;2023-02-13T02:30:37;8.10;88.20
30999;DHT22;20549;50.042;8.968;2023-02-13T02:33:17;8.00;88.50
30999;DHT22;20549;50.042;8.968;2023-02-13T02:36:05;7.90;88.80
30999;DHT22;20549;50.042;8.968;2023-02-13T02:39:01;7.80;88.90
30999;DHT22;20549;50.042;8.968;2023-02-13T02:47:00;7.40;89.60
30999;DHT22;20549;50.042;8.968;2023-02-13T02:49:41;7.30;90.00
30999;DHT22;20549;50.042;8.968;2023-02-13T02:52:30;7.20;90.10
30999;DHT22;20549;50.042;8.968;2023-02-13T02:54:59;7.10;90.30
30999;DHT22;20549;50.042;8.968;2023-02-13T03:00:19;6.90;90.50
30999;DHT22;20549;50.042;8.968;2023-02-13T03:03:04;6.80;90.60
30999;DHT22;20549;50.042;8.968;2023-02-13T03:05:47;6.70;90.80
30999;DHT22;20549;50.042;8.968;2023-02-13T03:08:32;6.60;90.90
30999;DHT22;20549;50.042;8.968;2023-02-13T03:11:16;6.50;91.10
30999;DHT22;20549;50.042;8.968;2023-02-13T03:14:02;6.40;91.20
30999;DHT22;20549;50.042;8.968;2023-02-13T03:16:28;6.40;91.40
30999;DHT22;20549;50.042;8.968;2023-02-13T03:19:22;6.30;91.60
30999;DHT22;20549;50.042;8.968;2023-02-13T03:25:11;6.10;91.80
30999;DHT22;20549;50.042;8.968;2023-02-13T03:28:05;6.10;92.00
30999;DHT22;20549;50.042;8.968;2023-02-13T03:42:08;5.70;92.40
30999;DHT22;20549;50.042;8.968;2023-02-13T03:47:46;5.60;92.50
30999;DHT22;20549;50.042;8.968;2023-02-13T03:50:12;5.50;92.40
30999;DHT22;20549;50.042;8.968;2023-02-13T03:52:42;5.50;92.60
30999;DHT22;20549;50.042;8.968;2023-02-13T03:57:54;5.40;92.80
30999;DHT22;20549;50.042;8.968;2023-02-13T04:00:38;5.30;92.70
30999;DHT22;20549;50.042;8.968;2023-02-13T04:03:06;5.20;92.80
30999;DHT22;20549;50.042;8.968;2023-02-13T04:05:31;5.20;92.90
30999;DHT22;20549;50.042;8.968;2023-02-13T04:07:58;5.10;93.00
30999;DHT22;20549;50.042;8.968;2023-02-13T04:10:24;5.10;93.10
30999;DHT22;20549;50.042;8.968;2023-02-13T04:12:59;5.00;93.20
30999;DHT22;20549;50.042;8.968;2023-02-13T04:15:45;5.00;93.20
30999;DHT22;20549;50.042;8.968;2023-02-13T04:18:15;4.90;93.20
30999;DHT22;20549;50.042;8.968;2023-02-13T04:20:40;4.90;93.30
30999;DHT22;20549;50.042;8.968;2023-02-13T04:23:07;4.80;93.30
30999;DHT22;20549;50.042;8.968;2023-02-13T04:25:33;4.80;93.50
30999;DHT22;20549;50.042;8.968;2023-02-13T04:28:00;4.70;93.60
30999;DHT22;20549;50.042;8.968;2023-02-13T04:30:26;4.70;93.70
30999;DHT22;20549;50.042;8.968;2023-02-13T04:32:53;4.60;93.80
30999;DHT22;20549;50.042;8.968;2023-02-13T04:35:19;4.60;94.00
30999;DHT22;20549;50.042;8.968;2023-02-13T04:37:46;4.60;94.10
30999;DHT22;20549;50.042;8.968;2023-02-13T04:40:13;4.60;94.20
30999;DHT22;20549;50.042;8.968;2023-02-13T04:42:39;4.50;94.30
30999;DHT22;20549;50.042;8.968;2023-02-13T04:45:06;4.50;94.40
30999;DHT22;20549;50.042;8.968;2023-02-13T04:47:32;4.50;94.40
30999;DHT22;20549;50.042;8.968;2023-02-13T04:49:59;4.40;94.30
30999;DHT22;20549;50.042;8.968;2023-02-13T04:52:26;4.40;94.40
30999;DHT22;20549;50.042;8.968;2023-02-13T04:54:52;4.30;94.40
30999;DHT22;20549;50.042;8.968;2023-02-13T04:57:19;4.30;94.50
30999;DHT22;20549;50.042;8.968;2023-02-13T04:59:45;4.30;94.50
30999;DHT22;20549;50.042;8.968;2023-02-13T05:02:12;4.20;94.60
30999;DHT22;20549;50.042;8.968;2023-02-13T05:04:38;4.20;94.60
30999;DHT22;20549;50.042;8.968;2023-02-13T05:07:05;4.20;94.70
30999;DHT22;20549;50.042;8.968;2023-02-13T05:09:32;4.10;94.70
30999;DHT22;20549;50.042;8.968;2023-02-13T05:11:58;4.10;94.90
30999;DHT22;20549;50.042;8.968;2023-02-13T05:14:25;4.00;94.90
30999;DHT22;20549;50.042;8.968;2023-02-13T05:16:51;4.00;95.00
30999;DHT22;20549;50.042;8.968;2023-02-13T05:19:18;4.00;95.20
30999;DHT22;20549;50.042;8.968;2023-02-13T05:21:45;4.00;95.30
30999;DHT22;20549;50.042;8.968;2023-02-13T05:24:29;4.00;95.50
30999;DHT22;20549;50.042;8.968;2023-02-13T05:26:56;3.90;95.40
30999;DHT22;20549;50.042;8.968;2023-02-13T05:29:23;3.90;95.50
30999;DHT22;20549;50.042;8.968;2023-02-13T05:31:51;3.90;95.50
30999;DHT22;20549;50.042;8.968;2023-02-13T05:34:16;3.90;95.60
30999;DHT22;20549;50.042;8.968;2023-02-13T05:36:42;3.80;95.60
30999;DHT22;20549;50.042;8.968;2023-02-13T05:39:09;3.80;95.70
30999;DHT22;20549;50.042;8.968;2023-02-13T05:41:36;3.80;95.70
30999;DHT22;20549;50.042;8.968;2023-02-13T05:44:02;3.80;95.70
30999;DHT22;20549;50.042;8.968;2023-02-13T05:46:29;3.70;95.70
30999;DHT22;20549;50.042;8.968;2023-02-13T05:48:55;3.70;95.70
30999;DHT22;20549;50.042;8.968;2023-02-13T05:51:22;3.70;95.70
30999;DHT22;20549;50.042;8.968;2023-02-13T05:53:49;3.70;95.70
30999;DHT22;20549;50.042;8.968;2023-02-13T05:56:15;3.60;95.70
30999;DHT22;20549;50.042;8.968;2023-02-13T05:58:42;3.60;95.80
30999;DHT22;20549;50.042;8.968;2023-02-13T06:01:08;3.60;95.90
30999;DHT22;20549;50.042;8.968;2023-02-13T06:03:35;3.60;96.00
30999;DHT22;20549;50.042;8.968;2023-02-13T06:06:02;3.50;96.00
30999;DHT22;20549;50.042;8.968;2023-02-13T06:08:28;3.50;96.20
30999;DHT22;20549;50.042;8.968;2023-02-13T06:10:55;3.50;96.20
30999;DHT22;20549;50.042;8.968;2023-02-13T06:13:21;3.50;96.30
30999;DHT22;20549;50.042;8.968;2023-02-13T06:15:48;3.50;96.40
30999;DHT22;20549;50.042;8.968;2023-02-13T06:18:14;3.40;96.50
30999;DHT22;20549;50.042;8.968;2023-02-13T06:20:41;3.40;96.40
30999;DHT22;20549;50.042;8.968;2023-02-13T06:23:08;3.40;96.50
30999;DHT22;20549;50.042;8.968;2023-02-13T06:25:34;3.40;96.50
30999;DHT22;20549;50.042;8.968;2023-02-13T06:28:01;3.40;96.60
30999;DHT22;20549;50.042;8.968;2023-02-13T06:30:27;3.40;96.70
30999;DHT22;20549;50.042;8.968;2023-02-13T06:32:54;3.40;96.80
30999;DHT22;20549;50.042;8.968;2023-02-13T06:35:20;3.40;96.90
30999;DHT22;20549;50.042;8.968;2023-02-13T06:37:47;3.40;97.00
30999;DHT22;20549;50.042;8.968;2023-02-13T06:40:14;3.40;97.00
30999;DHT22;20549;50.042;8.968;2023-02-13T06:42:43;3.40;97.10
30999;DHT22;20549;50.042;8.968;2023-02-13T06:45:10;3.40;97.10
30999;DHT22;20549;50.042;8.968;2023-02-13T06:47:39;3.40;97.10
30999;DHT22;20549;50.042;8.968;2023-02-13T06:50:03;3.40;97.20
30999;DHT22;20549;50.042;8.968;2023-02-13T06:52:29;3.40;97.30
30999;DHT22;20549;50.042;8.968;2023-02-13T06:54:56;3.40;97.40
30999;DHT22;20549;50.042;8.968;2023-02-13T06:57:22;3.40;97.60
30999;DHT22;20549;50.042;8.968;2023-02-13T06:59:49;3.40;97.80
30999;DHT22;20549;50.042;8.968;2023-02-13T07:02:16;3.50;98.00
30999;DHT22;20549;50.042;8.968;2023-02-13T07:04:42;3.50;98.20
30999;DHT22;20549;50.042;8.968;2023-02-13T07:07:09;3.60;98.70
30999;DHT22;20549;50.042;8.968;2023-02-13T07:09:35;3.70;99.60
30999;DHT22;20549;50.042;8.968;2023-02-13T07:12:02;3.90;99.90
30999;DHT22;20549;50.042;8.968;2023-02-13T07:14:28;4.10;99.90
30999;DHT22;20549;50.042;8.968;2023-02-13T07:16:55;4.30;99.90
30999;DHT22;20549;50.042;8.968;2023-02-13T07:19:22;4.60;99.90
30999;DHT22;20549;50.042;8.968;2023-02-13T07:21:48;4.90;99.90
30999;DHT22;20549;50.042;8.968;2023-02-13T07:24:15;5.30;99.90
30999;DHT22;20549;50.042;8.968;2023-02-13T07:26:41;5.60;99.90
30999;DHT22;20549;50.042;8.968;2023-02-13T07:29:08;6.00;99.90
30999;DHT22;20549;50.042;8.968;2023-02-13T07:31:35;6.50;99.90
30999;DHT22;20549;50.042;8.968;2023-02-13T07:34:01;6.90;99.90
30999;DHT22;20549;50.042;8.968;2023-02-13T07:36:28;7.40;99.90
30999;DHT22;20549;50.042;8.968;2023-02-13T07:38:54;7.90;99.90
30999;DHT22;20549;50.042;8.968;2023-02-13T07:41:21;8.40;99.90
30999;DHT22;20549;50.042;8.968;2023-02-13T07:43:48;8.90;99.90
30999;DHT22;20549;50.042;8.968;2023-02-13T07:46:14;9.50;99.90
30999;DHT22;20549;50.042;8.968;2023-02-13T07:48:41;10.00;99.90
30999;DHT22;20549;50.042;8.968;2023-02-13T07:51:07;10.60;99.90
30999;DHT22;20549;50.042;8.968;2023-02-13T07:53:34;11.20;99.50
30999;DHT22;20549;50.042;8.968;2023-02-13T07:56:06;11.80;98.50
30999;DHT22;20549;50.042;8.968;2023-02-13T07:58:30;12.40;97.40
30999;DHT22;20549;50.042;8.968;2023-02-13T08:00:57;13.00;96.20
30999;DHT22;20549;50.042;8.968;2023-02-13T08:03:23;13.50;95.00
30999;DHT22;20549;50.042;8.968;2023-02-13T08:05:50;14.10;93.70
30999;DHT22;20549;50.042;8.968;2023-02-13T08:08:16;14.70;92.30
30999;DHT22;20549;50.042;8.968;2023-02-13T08:10:43;15.20;91.00
30999;DHT22;20549;50.042;8.968;2023-02-13T08:13:27;15.70;90.10
30999;DHT22;20549;50.042;8.968;2023-02-13T08:15:54;16.20;87.80
30999;DHT22;20549;50.042;8.968;2023-02-13T08:18:21;16.70;85.60
30999;DHT22;20549;50.042;8.968;2023-02-13T08:20:47;17.10;83.60
30999;DHT22;20549;50.042;8.968;2023-02-13T08:23:14;17.50;81.90
30999;DHT22;20549;50.042;8.968;2023-02-13T08:25:40;17.80;80.40
30999;DHT22;20549;50.042;8.968;2023-02-13T08:28:07;18.20;78.90
30999;DHT22;20549;50.042;8.968;2023-02-13T08:30:34;18.50;77.60
30999;DHT22;20549;50.042;8.968;2023-02-13T08:33:00;18.80;76.30
30999;DHT22;20549;50.042;8.968;2023-02-13T08:35:27;19.10;75.50
30999;DHT22;20549;50.042;8.968;2023-02-13T08:37:53;19.30;74.40
30999;DHT22;20549;50.042;8.968;2023-02-13T08:40:20;19.60;73.30
30999;DHT22;20549;50.042;8.968;2023-02-13T08:42:46;19.80;72.60
30999;DHT22;20549;50.042;8.968;2023-02-13T08:45:13;20.10;71.90
30999;DHT22;20549;50.042;8.968;2023-02-13T08:47:40;20.30;70.70
30999;DHT22;20549;50.042;8.968;2023-02-13T08:50:06;20.50;69.80
30999;DHT22;20549;50.042;8.968;2023-02-13T08:52:33;20.70;69.30
30999;DHT22;20549;50.042;8.968;2023-02-13T08:54:59;20.90;68.70
30999;DHT22;20549;50.042;8.968;2023-02-13T08:57:26;21.00;68.20
30999;DHT22;20549;50.042;8.968;2023-02-13T08:59:53;21.20;67.50
30999;DHT22;20549;50.042;8.968;2023-02-13T09:02:19;21.30;67.00
30999;DHT22;20549;50.042;8.968;2023-02-13T09:04:46;21.40;66.50
30999;DHT22;20549;50.042;8.968;2023-02-13T09:07:12;21.50;66.20
30999;DHT22;20549;50.042;8.968;2023-02-13T09:09:39;21.50;65.70
30999;DHT22;20549;50.042;8.968;2023-02-13T09:12:06;21.50;64.40
30999;DHT22;20549;50.042;8.968;2023-02-13T09:14:32;21.40;63.40
30999;DHT22;20549;50.042;8.968;2023-02-13T09:16:59;21.20;62.90
30999;DHT22;20549;50.042;8.968;2023-02-13T09:19:25;20.90;62.00
30999;DHT22;20549;50.042;8.968;2023-02-13T09:21:52;20.50;61.20
30999;DHT22;20549;50.042;8.968;2023-02-13T09:24:18;20.00;60.40
30999;DHT22;20549;50.042;8.968;2023-02-13T09:26:45;19.40;60.40
30999;DHT22;20549;50.042;8.968;2023-02-13T09:29:12;18.80;60.70
30999;DHT22;20549;50.042;8.968;2023-02-13T09:31:38;18.30;61.20
30999;DHT22;20549;50.042;8.968;2023-02-13T09:34:05;17.70;61.10
30999;DHT22;20549;50.042;8.968;2023-02-13T09:36:31;17.10;61.60
30999;DHT22;20549;50.042;8.968;2023-02-13T09:38:58;16.60;62.50
30999;DHT22;20549;50.042;8.968;2023-02-13T09:41:29;16.20;63.40
30999;DHT22;20549;50.042;8.968;2023-02-13T09:43:58;15.80;64.30
30999;DHT22;20549;50.042;8.968;2023-02-13T09:46:35;15.50;65.10
30999;DHT22;20549;50.042;8.968;2023-02-13T09:49:00;15.20;65.90
30999;DHT22;20549;50.042;8.968;2023-02-13T09:51:25;15.10;66.40
30999;DHT22;20549;50.042;8.968;2023-02-13T09:53:53;15.00;67.30
30999;DHT22;20549;50.042;8.968;2023-02-13T09:56:36;15.00;68.50
30999;DHT22;20549;50.042;8.968;2023-02-13T09:59:11;15.00;69.40
30999;DHT22;20549;50.042;8.968;2023-02-13T10:01:43;15.10;70.30
30999;DHT22;20549;50.042;8.968;2023-02-13T10:04:35;15.20;70.30
30999;DHT22;20549;50.042;8.968;2023-02-13T10:07:03;15.40;70.30
30999;DHT22;20549;50.042;8.968;2023-02-13T10:10:26;15.50;69.80
30999;DHT22;20549;50.042;8.968;2023-02-13T10:12:27;15.60;69.00
30999;DHT22;20549;50.042;8.968;2023-02-13T10:15:36;15.60;68.40
30999;DHT22;20549;50.042;8.968;2023-02-13T10:17:27;15.60;68.10
30999;DHT22;20549;50.042;8.968;2023-02-13T10:19:59;15.50;67.80
30999;DHT22;20549;50.042;8.968;2023-02-13T10:22:40;15.40;67.30
30999;DHT22;20549;50.042;8.968;2023-02-13T10:25:15;15.30;67.10
30999;DHT22;20549;50.042;8.968;2023-02-13T10:27:39;15.20;67.10
30999;DHT22;20549;50.042;8.968;2023-02-13T10:30:14;15.10;67.20
30999;DHT22;20549;50.042;8.968;2023-02-13T10:32:45;15.00;67.10
30999;DHT22;20549;50.042;8.968;2023-02-13T10:35:20;14.90;67.00
30999;DHT22;20549;50.042;8.968;2023-02-13T10:37:48;14.80;67.00
30999;DHT22;20549;50.042;8.968;2023-02-13T10:40:11;14.70;67.10
30999;DHT22;20549;50.042;8.968;2023-02-13T10:42:42;14.60;67.10
30999;DHT22;20549;50.042;8.968;2023-02-13T10:48:13;14.30;67.40
30999;DHT22;20549;50.042;8.968;2023-02-13T10:53:49;14.20;67.70
30999;DHT22;20549;50.042;8.968;2023-02-13T10:56:25;14.20;67.80
30999;DHT22;20549;50.042;8.968;2023-02-13T11:01:37;14.00;67.90
30999;DHT22;20549;50.042;8.968;2023-02-13T11:04:09;14.00;68.10
30999;DHT22;20549;50.042;8.968;2023-02-13T11:06:35;13.90;68.30
30999;DHT22;20549;50.042;8.968;2023-02-13T11:09:00;13.80;68.40
30999;DHT22;20549;50.042;8.968;2023-02-13T11:11:31;13.80;68.60
30999;DHT22;20549;50.042;8.968;2023-02-13T11:16:51;13.80;68.80
30999;DHT22;20549;50.042;8.968;2023-02-13T11:21:52;13.90;68.80
30999;DHT22;20549;50.042;8.968;2023-02-13T11:24:22;13.90;68.70
30999;DHT22;20549;50.042;8.968;2023-02-13T11:26:56;13.80;68.80
30999;DHT22;20549;50.042;8.968;2023-02-13T11:31:46;13.90;68.80
30999;DHT22;20549;50.042;8.968;2023-02-13T11:34:23;13.90;68.80
30999;DHT22;20549;50.042;8.968;2023-02-13T11:37:13;13.90;68.60
30999;DHT22;20549;50.042;8.968;2023-02-13T11:39:34;14.00;68.50
30999;DHT22;20549;50.042;8.968;2023-02-13T11:42:00;14.00;68.50
30999;DHT22;20549;50.042;8.968;2023-02-13T11:44:30;13.90;68.30
30999;DHT22;20549;50.042;8.968;2023-02-13T11:46:57;13.90;68.20
30999;DHT22;20549;50.042;8.968;2023-02-13T11:49:23;13.90;68.10
30999;DHT22;20549;50.042;8.968;2023-02-13T11:51:56;14.00;68.30
30999;DHT22;20549;50.042;8.968;2023-02-13T11:57:02;14.00;68.10
30999;DHT22;20549;50.042;8.968;2023-02-13T11:59:29;14.00;68.00
30999;DHT22;20549;50.042;8.968;2023-02-13T12:02:10;13.90;67.80
30999;DHT22;20549;50.042;8.968;2023-02-13T12:04:29;14.00;67.90
30999;DHT22;20549;50.042;8.968;2023-02-13T12:07:02;13.90;67.70
30999;DHT22;20549;50.042;8.968;2023-02-13T12:09:28;13.90;67.80
30999;DHT22;20549;50.042;8.968;2023-02-13T12:11:59;14.00;67.90
30999;DHT22;20549;50.042;8.968;2023-02-13T12:14:26;14.00;67.90
30999;DHT22;20549;50.042;8.968;2023-02-13T12:17:36;14.00;67.90
30999;DHT22;20549;50.042;8.968;2023-02-13T12:19:42;14.10;67.90
30999;DHT22;20549;50.042;8.968;2023-02-13T12:22:16;14.10;67.70
30999;DHT22;20549;50.042;8.968;2023-02-13T12:36:24;14.10;67.00
30999;DHT22;20549;50.042;8.968;2023-02-13T12:41:12;14.00;67.20
30999;DHT22;20549;50.042;8.968;2023-02-13T12:43:56;14.00;67.20
30999;DHT22;20549;50.042;8.968;2023-02-13T12:46:26;14.00;67.20
30999;DHT22;20549;50.042;8.968;2023-02-13T12:49:12;14.00;67.20
30999;DHT22;20549;50.042;8.968;2023-02-13T12:52:05;14.00;67.20
30999;DHT22;20549;50.042;8.968;2023-02-13T12:54:43;14.00;67.20
30999;DHT22;20549;50.042;8.968;2023-02-13T13:00:29;14.10;67.40
30999;DHT22;20549;50.042;8.968;2023-02-13T13:10:51;14.20;67.20
30999;DHT22;20549;50.042;8.968;2023-02-13T13:15:54;14.30;67.10
30999;DHT22;20549;50.042;8.968;2023-02-13T13:18:22;14.30;67.00
30999;DHT22;20549;50.042;8.968;2023-02-13T13:23:21;14.30;66.30
30999;DHT22;20549;50.042;8.968;2023-02-13T13:26:07;14.40;66.40
30999;DHT22;20549;50.042;8.968;2023-02-13T13:28:35;14.40;66.40
30999;DHT22;20549;50.042;8.968;2023-02-13T13:31:00;14.40;66.40
30999;DHT22;20549;50.042;8.968;2023-02-13T13:33:27;14.40;66.10
30999;DHT22;20549;50.042;8.968;2023-02-13T13:36:11;14.40;66.00
30999;DHT22;20549;50.042;8.968;2023-02-13T13:38:55;14.40;66.00
30999;DHT22;20549;50.042;8.968;2023-02-13T13:44:04;14.50;65.70
30999;DHT22;20549;50.042;8.968;2023-02-13T13:49:54;14.40;65.50
30999;DHT22;20549;50.042;8.968;2023-02-13T13:52:29;14.40;65.70
30999;DHT22;20549;50.042;8.968;2023-02-13T13:54:56;14.40;65.70
30999;DHT22;20549;50.042;8.968;2023-02-13T13:57:27;14.40;65.70
30999;DHT22;20549;50.042;8.968;2023-02-13T13:59:54;14.40;65.50
30999;DHT22;20549;50.042;8.968;2023-02-13T14:05:00;14.40;65.50
30999;DHT22;20549;50.042;8.968;2023-02-13T14:07:25;14.40;65.40
30999;DHT22;20549;50.042;8.968;2023-02-13T14:09:52;14.40;65.20
30999;DHT22;20549;50.042;8.968;2023-02-13T14:13:05;14.40;65.20
30999;DHT22;20549;50.042;8.968;2023-02-13T14:14:45;14.30;65.20
30999;DHT22;20549;50.042;8.968;2023-02-13T14:17:12;14.30;65.00
30999;DHT22;20549;50.042;8.968;2023-02-13T14:19:38;14.30;65.00
30999;DHT22;20549;50.042;8.968;2023-02-13T14:24:56;14.30;64.90
30999;DHT22;20549;50.042;8.968;2023-02-13T14:27:26;14.20;64.90
30999;DHT22;20549;50.042;8.968;2023-02-13T14:29:51;14.20;65.00
30999;DHT22;20549;50.042;8.968;2023-02-13T14:34:55;14.20;65.00
30999;DHT22;20549;50.042;8.968;2023-02-13T14:37:18;14.20;65.10
30999;DHT22;20549;50.042;8.968;2023-02-13T14:42:43;14.10;64.90
30999;DHT22;20549;50.042;8.968;2023-02-13T14:45:19;14.10;65.00
30999;DHT22;20549;50.042;8.968;2023-02-13T14:47:46;14.10;65.00
30999;DHT22;20549;50.042;8.968;2023-02-13T14:50:17;14.10;65.00
30999;DHT22;20549;50.042;8.968;2023-02-13T14:52:41;14.00;65.00
30999;DHT22;20549;50.042;8.968;2023-02-13T14:55:12;14.00;65.00
30999;DHT22;20549;50.042;8.968;2023-02-13T14:57:38;14.00;65.00
30999;DHT22;20549;50.042;8.968;2023-02-13T15:00:49;14.00;65.00
30999;DHT22;20549;50.042;8.968;2023-02-13T15:02:40;14.00;64.90
30999;DHT22;20549;50.042;8.968;2023-02-13T15:05:06;14.00;65.00
30999;DHT22;20549;50.042;8.968;2023-02-13T15:07:35;13.90;64.90
30999;DHT22;20549;50.042;8.968;2023-02-13T15:10:03;13.90;64.90
30999;DHT22;20549;50.042;8.968;2023-02-13T15:12:35;13.90;65.00
30999;DHT22;20549;50.042;8.968;2023-02-13T15:15:00;13.80;64.90
30999;DHT22;20549;50.042;8.968;2023-02-13T15:17:27;13.80;65.00
30999;DHT22;20549;50.042;8.968;2023-02-13T15:19:54;13.80;65.00
30999;DHT22;20549;50.042;8.968;2023-02-13T15:22:20;13.80;65.00
30999;DHT22;20549;50.042;8.968;2023-02-13T15:24:47;13.80;65.00
30999;DHT22;20549;50.042;8.968;2023-02-13T15:27:20;13.70;65.00
30999;DHT22;20549;50.042;8.968;2023-02-13T15:29:52;13.60;65.00
30999;DHT22;20549;50.042;8.968;2023-02-13T15:32:19;13.60;65.10
30999;DHT22;20549;50.042;8.968;2023-02-13T15:34:47;13.60;65.00
30999;DHT22;20549;50.042;8.968;2023-02-13T15:37:20;13.50;65.00
30999;DHT22;20549;50.042;8.968;2023-02-13T15:39:46;13.50;65.00
30999;DHT22;20549;50.042;8.968;2023-02-13T15:42:13;13.40;65.00
30999;DHT22;20549;50.042;8.968;2023-02-13T15:44:39;13.40;65.30
30999;DHT22;20549;50.042;8.968;2023-02-13T15:47:07;13.30;65.10
30999;DHT22;20549;50.042;8.968;2023-02-13T15:49:36;13.20;65.10
30999;DHT22;20549;50.042;8.968;2023-02-13T15:52:19;13.20;65.20
30999;DHT22;20549;50.042;8.968;2023-02-13T15:54:35;13.10;65.30
30999;DHT22;20549;50.042;8.968;2023-02-13T15:57:03;13.10;65.30
30999;DHT22;20549;50.042;8.968;2023-02-13T15:59:37;13.00;65.40
30999;DHT22;20549;50.042;8.968;2023-02-13T16:01:54;12.90;65.40
30999;DHT22;20549;50.042;8.968;2023-02-13T16:04:21;12.90;65.50
30999;DHT22;20549;50.042;8.968;2023-02-13T16:06:48;12.90;65.60
30999;DHT22;20549;50.042;8.968;2023-02-13T16:09:30;12.80;65.60
30999;DHT22;20549;50.042;8.968;2023-02-13T16:11:58;12.70;65.70
30999;DHT22;20549;50.042;8.968;2023-02-13T16:14:23;12.60;65.70
30999;DHT22;20549;50.042;8.968;2023-02-13T16:16:56;12.50;65.80
30999;DHT22;20549;50.042;8.968;2023-02-13T16:19:29;12.50;65.90
30999;DHT22;20549;50.042;8.968;2023-02-13T16:21:54;12.40;66.00
30999;DHT22;20549;50.042;8.968;2023-02-13T16:24:20;12.30;66.20
30999;DHT22;20549;50.042;8.968;2023-02-13T16:26:47;12.20;66.20
30999;DHT22;20549;50.042;8.968;2023-02-13T16:29:20;12.10;66.40
30999;DHT22;20549;50.042;8.968;2023-02-13T16:31:46;12.00;66.40
30999;DHT22;20549;50.042;8.968;2023-02-13T16:34:25;11.90;66.50
30999;DHT22;20549;50.042;8.968;2023-02-13T16:36:51;11.80;66.70
30999;DHT22;20549;50.042;8.968;2023-02-13T16:39:19;11.70;66.70
30999;DHT22;20549;50.042;8.968;2023-02-13T16:41:44;11.60;66.90
30999;DHT22;20549;50.042;8.968;2023-02-13T16:44:30;11.50;67.10
30999;DHT22;20549;50.042;8.968;2023-02-13T16:46:57;11.50;67.30
30999;DHT22;20549;50.042;8.968;2023-02-13T16:49:35;11.40;67.40
30999;DHT22;20549;50.042;8.968;2023-02-13T16:51:59;11.30;67.60
30999;DHT22;20549;50.042;8.968;2023-02-13T16:54:26;11.10;67.70
30999;DHT22;20549;50.042;8.968;2023-02-13T16:57:04;11.10;68.00
30999;DHT22;20549;50.042;8.968;2023-02-13T17:05:25;10.80;68.40
30999;DHT22;20549;50.042;8.968;2023-02-13T17:07:24;10.70;68.50
30999;DHT22;20549;50.042;8.968;2023-02-13T17:09:53;10.60;68.80
30999;DHT22;20549;50.042;8.968;2023-02-13T17:12:18;10.50;68.90
30999;DHT22;20549;50.042;8.968;2023-02-13T17:14:45;10.40;69.00
30999;DHT22;20549;50.042;8.968;2023-02-13T17:17:18;10.40;69.20
30999;DHT22;20549;50.042;8.968;2023-02-13T17:19:44;10.30;69.40
30999;DHT22;20549;50.042;8.968;2023-02-13T17:22:18;10.20;68.70
30999;DHT22;20549;50.042;8.968;2023-02-13T17:24:43;10.20;69.80
30999;DHT22;20549;50.042;8.968;2023-02-13T17:27:10;10.10;70.00
30999;DHT22;20549;50.042;8.968;2023-02-13T17:29:36;10.00;70.10
30999;DHT22;20549;50.042;8.968;2023-02-13T17:32:03;10.00;70.40
30999;DHT22;20549;50.042;8.968;2023-02-13T17:34:29;9.90;70.40
30999;DHT22;20549;50.042;8.968;2023-02-13T17:36:56;9.90;69.90